createdAt,value
2018-05-12T00:01:37.989Z,11.60
2018-05-12T00:04:05.585Z,11.90
2018-05-12T00:06:33.212Z,10.67
2018-05-12T00:09:01.054Z,11.23
2018-05-12T00:11:28.819Z,11.17
2018-05-12T00:13:56.462Z,11.13
2018-05-12T00:16:24.508Z,11.10
2018-05-12T00:18:52.294Z,11.37
2018-05-12T00:21:20.516Z,13.50
2018-05-12T00:23:48.398Z,12.17
2018-05-12T00:26:16.068Z,11.47
2018-05-12T00:28:43.843Z,11.20
2018-05-12T00:31:11.815Z,11.33
2018-05-12T00:33:39.584Z,10.77
2018-05-12T00:36:07.204Z,12.03
2018-05-12T00:38:34.807Z,12.27
2018-05-12T00:41:02.433Z,13.83
2018-05-12T00:43:30.170Z,12.10
2018-05-12T00:45:58.739Z,11.97
2018-05-12T00:48:26.378Z,12.47
2018-05-12T00:50:54.102Z,11.33
2018-05-12T00:53:21.891Z,11.37
2018-05-12T00:55:49.625Z,11.23
2018-05-12T00:58:17.283Z,11.73
2018-05-12T01:00:44.906Z,12.10
2018-05-12T01:03:12.923Z,11.70
2018-05-12T01:05:40.547Z,10.90
2018-05-12T01:08:09.173Z,13.00
2018-05-12T01:10:36.984Z,11.53
2018-05-12T01:13:04.605Z,13.00
2018-05-12T01:15:32.242Z,12.67
2018-05-12T01:17:59.828Z,11.30
2018-05-12T01:20:27.503Z,15.60
2018-05-12T01:22:55.108Z,10.87
2018-05-12T01:25:23.009Z,11.63
2018-05-12T01:27:50.724Z,11.03
2018-05-12T01:30:18.348Z,11.23
2018-05-12T01:32:46.388Z,12.17
2018-05-12T01:35:14.307Z,10.57
2018-05-12T01:37:41.922Z,11.80
2018-05-12T01:40:10.302Z,10.50
2018-05-12T01:42:37.898Z,11.93
2018-05-12T01:45:05.630Z,11.13
2018-05-12T01:47:34.867Z,10.63
2018-05-12T01:50:02.650Z,11.03
2018-05-12T01:52:30.238Z,9.60
2018-05-12T01:54:57.916Z,10.43
2018-05-12T01:57:26.273Z,11.73
2018-05-12T01:59:54.066Z,10.17
2018-05-12T02:02:21.674Z,11.10
2018-05-12T02:04:49.296Z,10.07
2018-05-12T02:07:16.939Z,10.73
2018-05-12T02:09:44.534Z,10.87
2018-05-12T02:12:12.188Z,10.87
2018-05-12T02:14:40.563Z,10.57
2018-05-12T02:17:11.377Z,10.37
2018-05-12T02:19:39.076Z,10.53
2018-05-12T02:22:06.824Z,10.30
2018-05-12T02:24:34.477Z,11.27
2018-05-12T02:27:02.130Z,10.33
2018-05-12T02:29:29.907Z,10.37
2018-05-12T02:31:57.566Z,11.23
2018-05-12T02:34:25.178Z,10.30
2018-05-12T02:36:52.998Z,10.90
2018-05-12T02:39:21.521Z,11.23
2018-05-12T02:41:49.168Z,11.53
2018-05-12T02:44:16.771Z,12.03
2018-05-12T02:46:44.568Z,10.60
2018-05-12T02:49:12.284Z,10.97
2018-05-12T02:51:40.049Z,10.47
2018-05-12T02:54:07.711Z,11.10
2018-05-12T02:56:35.314Z,10.63
2018-05-12T02:59:02.935Z,10.73
2018-05-12T03:01:30.836Z,10.57
2018-05-12T03:03:58.751Z,10.03
2018-05-12T03:06:26.352Z,10.97
2018-05-12T03:08:53.957Z,9.97
2018-05-12T03:11:21.802Z,10.77
2018-05-12T03:13:49.570Z,11.80
2018-05-12T03:16:17.349Z,9.73
2018-05-12T03:18:44.976Z,10.40
2018-05-12T03:21:12.584Z,11.70
2018-05-12T03:23:40.344Z,10.20
2018-05-12T03:26:07.963Z,11.10
2018-05-12T03:28:35.696Z,10.70
2018-05-12T03:31:03.314Z,10.20
2018-05-12T03:33:31.222Z,9.43
2018-05-12T03:35:59.602Z,10.13
2018-05-12T03:38:29.326Z,10.23
2018-05-12T03:40:56.996Z,9.60
2018-05-12T03:43:24.958Z,9.30
2018-05-12T03:45:52.690Z,8.93
2018-05-12T03:48:21.037Z,10.37
2018-05-12T03:50:48.719Z,11.20
2018-05-12T03:53:16.534Z,9.43
2018-05-12T03:55:44.159Z,10.53
2018-05-12T03:58:11.879Z,10.07
2018-05-12T04:00:39.483Z,12.40
2018-05-12T04:03:07.345Z,9.97
2018-05-12T04:05:46.747Z,9.90
2018-05-12T04:08:27.125Z,9.60
2018-05-12T04:11:06.497Z,8.90
2018-05-12T04:13:34.122Z,9.73
2018-05-12T04:16:01.858Z,9.07
2018-05-12T04:18:29.650Z,8.67
2018-05-12T04:20:57.708Z,10.67
2018-05-12T04:23:25.460Z,9.07
2018-05-12T04:25:53.098Z,9.50
2018-05-12T04:28:20.719Z,10.53
2018-05-12T04:30:48.504Z,10.03
2018-05-12T04:33:16.114Z,9.30
2018-05-12T04:35:43.722Z,8.43
2018-05-12T04:38:11.496Z,8.83
2018-05-12T04:40:39.079Z,7.90
2018-05-12T04:43:06.694Z,8.90
2018-05-12T04:45:34.303Z,9.17
2018-05-12T04:48:01.953Z,8.27
2018-05-12T04:50:30.310Z,9.17
2018-05-12T04:52:57.881Z,8.40
2018-05-12T04:55:25.489Z,9.20
2018-05-12T04:57:53.106Z,7.83
2018-05-12T05:00:20.697Z,8.63
2018-05-12T05:02:48.262Z,8.10
2018-05-12T05:05:15.884Z,8.60
2018-05-12T05:07:43.489Z,9.40
2018-05-12T05:10:11.078Z,7.33
2018-05-12T05:12:38.702Z,7.33
2018-05-12T05:15:07.057Z,8.00
2018-05-12T05:17:34.654Z,8.27
2018-05-12T05:20:02.249Z,7.07
2018-05-12T05:22:29.858Z,7.83
2018-05-12T05:24:57.463Z,9.33
2018-05-12T05:27:25.051Z,10.47
2018-05-12T05:29:52.639Z,7.50
2018-05-12T05:32:21.256Z,8.17
2018-05-12T05:34:48.856Z,10.47
2018-05-12T05:37:20.355Z,8.87
2018-05-12T05:39:47.954Z,8.77
2018-05-12T05:42:15.547Z,8.87
2018-05-12T05:44:43.127Z,8.83
2018-05-12T05:47:11.495Z,9.27
2018-05-12T05:49:39.406Z,8.93
2018-05-12T05:52:07.006Z,8.87
2018-05-12T05:54:34.661Z,8.63
2018-05-12T05:57:02.261Z,8.30
2018-05-12T05:59:29.870Z,8.10
2018-05-12T06:01:58.579Z,8.13
2018-05-12T06:04:26.699Z,8.93
2018-05-12T06:06:54.533Z,9.13
2018-05-12T06:09:22.843Z,7.80
2018-05-12T06:11:50.567Z,8.40
2018-05-12T06:14:18.173Z,8.77
2018-05-12T06:16:45.795Z,14.20
2018-05-12T06:19:14.218Z,10.37
2018-05-12T06:21:41.822Z,8.43
2018-05-12T06:24:09.498Z,8.53
2018-05-12T06:26:37.113Z,10.63
2018-05-12T06:29:04.706Z,10.07
2018-05-12T06:31:32.294Z,9.53
2018-05-12T06:33:59.904Z,9.40
2018-05-12T06:36:27.478Z,9.97
2018-05-12T06:38:55.207Z,9.50
2018-05-12T06:41:22.798Z,9.67
2018-05-12T06:43:50.398Z,10.23
2018-05-12T06:46:18.043Z,8.27
2018-05-12T06:48:45.663Z,9.30
2018-05-12T06:51:13.245Z,8.83
2018-05-12T06:53:40.811Z,9.90
2018-05-12T06:56:08.419Z,11.63
2018-05-12T06:58:36.002Z,9.80
2018-05-12T07:01:03.594Z,10.80
2018-05-12T07:03:31.208Z,9.70
2018-05-12T07:05:59.571Z,10.63
2018-05-12T07:08:27.169Z,8.47
2018-05-12T07:10:54.788Z,9.57
2018-05-12T07:13:22.426Z,9.53
2018-05-12T07:15:50.004Z,9.67
2018-05-12T07:18:17.595Z,10.40
2018-05-12T07:20:45.215Z,11.30
2018-05-12T07:23:12.801Z,10.00
2018-05-12T07:25:40.405Z,9.83
2018-05-12T07:28:09.202Z,10.83
2018-05-12T07:30:36.816Z,9.80
2018-05-12T07:33:04.406Z,11.73
2018-05-12T07:35:32.751Z,9.30
2018-05-12T07:38:00.392Z,9.33
2018-05-12T07:40:27.991Z,10.83
2018-05-12T07:42:56.365Z,14.83
2018-05-12T07:45:23.976Z,8.73
2018-05-12T07:47:51.584Z,7.83
2018-05-12T07:50:19.195Z,11.53
2018-05-12T07:52:46.817Z,12.37
2018-05-12T07:55:15.179Z,11.40
2018-05-12T07:57:42.946Z,9.02
2018-05-12T08:00:11.035Z,10.00
2018-05-12T08:02:39.393Z,8.60
2018-05-12T08:05:06.997Z,7.93
2018-05-12T08:07:34.598Z,10.60
2018-05-12T08:10:02.207Z,9.23
2018-05-12T08:12:30.203Z,9.73
2018-05-12T08:14:57.816Z,9.57
2018-05-12T08:17:25.457Z,9.83
2018-05-12T08:19:53.057Z,13.40
2018-05-12T08:22:20.665Z,9.63
2018-05-12T08:24:48.270Z,10.70
2018-05-12T08:27:15.887Z,9.38
2018-05-12T08:29:43.472Z,10.03
2018-05-12T08:32:11.076Z,13.00
2018-05-12T08:34:39.422Z,10.93
2018-05-12T08:37:07.042Z,11.35
2018-05-12T08:39:34.657Z,10.27
2018-05-12T08:42:02.260Z,12.85
2018-05-12T08:44:29.859Z,13.37
2018-05-12T08:46:57.429Z,10.55
2018-05-12T08:49:25.005Z,9.30
2018-05-12T08:51:52.597Z,10.80
2018-05-12T08:54:20.187Z,10.07
2018-05-12T08:56:47.791Z,10.65
2018-05-12T08:59:15.385Z,16.12
2018-05-12T09:01:42.999Z,16.95
2018-05-12T09:04:11.337Z,19.92
2018-05-12T09:06:39.019Z,14.35
2018-05-12T09:09:06.664Z,19.25
2018-05-12T09:11:34.252Z,21.95
2018-05-12T09:14:02.328Z,12.05
2018-05-12T09:16:29.992Z,13.27
2018-05-12T09:18:57.879Z,11.80
2018-05-12T09:21:25.461Z,9.18
2018-05-12T09:23:58.944Z,9.05
2018-05-12T09:26:27.145Z,10.80
2018-05-12T09:28:57.329Z,10.55
2018-05-12T09:31:24.952Z,11.07
2018-05-12T09:33:52.547Z,10.80
2018-05-12T09:36:20.133Z,9.10
2018-05-12T09:38:47.723Z,8.98
2018-05-12T09:41:15.339Z,8.80
2018-05-12T09:43:42.933Z,11.93
2018-05-12T09:46:10.640Z,10.95
2018-05-12T09:48:38.224Z,10.35
2018-05-12T09:51:05.809Z,9.75
2018-05-12T09:53:34.146Z,11.93
2018-05-12T09:56:01.754Z,10.25
2018-05-12T09:58:29.360Z,11.93
2018-05-12T10:00:57.718Z,9.82
2018-05-12T10:03:25.429Z,10.43
2018-05-12T10:05:52.964Z,12.07
2018-05-12T10:08:20.658Z,11.35
2018-05-12T10:10:48.254Z,13.15
2018-05-12T10:13:15.832Z,9.57
2018-05-12T10:15:43.416Z,120.18
2018-05-12T10:18:11.063Z,64.68
2018-05-12T10:20:38.690Z,14.32
2018-05-12T10:23:06.309Z,14.52
2018-05-12T10:25:33.907Z,11.00
2018-05-12T10:28:01.536Z,9.52
2018-05-12T10:30:29.974Z,8.85
2018-05-12T10:32:57.561Z,9.73
2018-05-12T10:35:25.154Z,10.98
2018-05-12T10:37:52.740Z,11.43
2018-05-12T10:40:20.342Z,10.73
2018-05-12T10:42:47.955Z,11.60
2018-05-12T10:45:15.656Z,10.82
2018-05-12T10:47:43.239Z,10.35
2018-05-12T10:50:10.827Z,11.85
2018-05-12T10:52:38.439Z,12.40
2018-05-12T10:55:06.056Z,12.15
2018-05-12T10:57:33.663Z,11.63
2018-05-12T11:00:01.257Z,11.88
2018-05-12T11:02:28.864Z,12.40
2018-05-12T11:04:56.443Z,10.98
2018-05-12T11:07:24.046Z,11.07
2018-05-12T11:09:51.659Z,10.30
2018-05-12T11:12:19.279Z,10.10
2018-05-12T11:14:46.873Z,11.23
2018-05-12T11:17:14.492Z,10.25
2018-05-12T11:19:42.068Z,9.10
2018-05-12T11:22:09.655Z,11.00
2018-05-12T11:24:38.015Z,9.68
2018-05-12T11:27:05.833Z,8.15
2018-05-12T11:29:33.552Z,8.60
2018-05-12T11:32:01.380Z,9.27
2018-05-12T11:34:29.289Z,7.07
2018-05-12T11:36:59.986Z,7.60
2018-05-12T11:39:30.517Z,8.38
2018-05-12T11:42:00.744Z,6.55
2018-05-12T11:44:28.921Z,6.07
2018-05-12T11:46:56.574Z,7.25
2018-05-12T11:49:24.172Z,7.45
2018-05-12T11:51:51.765Z,7.28
2018-05-12T11:54:19.344Z,5.50
2018-05-12T11:56:46.954Z,6.82
2018-05-12T11:59:14.556Z,6.47
2018-05-12T12:01:42.146Z,6.55
2018-05-12T12:04:09.794Z,7.28
2018-05-12T12:06:37.375Z,7.75
2018-05-12T12:09:05.011Z,7.30
2018-05-12T12:11:32.585Z,7.60
2018-05-12T12:14:00.174Z,7.68
2018-05-12T12:16:27.819Z,5.55
2018-05-12T12:18:55.413Z,6.40
2018-05-12T12:21:23.013Z,6.60
2018-05-12T12:23:50.597Z,7.05
2018-05-12T12:26:18.209Z,6.18
2018-05-12T12:28:45.797Z,7.03
2018-05-12T12:31:13.390Z,6.62
2018-05-12T12:33:41.004Z,7.07
2018-05-12T12:36:09.365Z,6.82
2018-05-12T12:38:36.978Z,7.18
2018-05-12T12:41:04.577Z,6.95
2018-05-12T12:43:32.171Z,6.65
2018-05-12T12:45:59.771Z,5.53
2018-05-12T12:48:27.349Z,6.87
2018-05-12T12:50:55.358Z,7.05
2018-05-12T12:53:23.726Z,7.85
2018-05-12T12:55:51.313Z,9.10
2018-05-12T12:58:18.987Z,8.60
2018-05-12T13:00:46.543Z,7.40
2018-05-12T13:03:14.187Z,7.75
2018-05-12T13:05:42.545Z,7.35
2018-05-12T13:08:10.128Z,7.80
2018-05-12T13:10:37.746Z,10.02
2018-05-12T13:13:05.348Z,7.40
2018-05-12T13:15:32.946Z,7.60
2018-05-12T13:18:00.520Z,7.90
2018-05-12T13:20:29.356Z,8.93
2018-05-12T13:22:56.967Z,8.82
2018-05-12T13:25:24.573Z,8.32
2018-05-12T13:27:52.164Z,8.75
2018-05-12T13:30:19.769Z,8.13
2018-05-12T13:32:47.379Z,8.90
2018-05-12T13:35:15.715Z,7.53
2018-05-12T13:37:43.319Z,8.25
2018-05-12T13:40:10.926Z,8.93
2018-05-12T13:42:38.523Z,8.27
2018-05-12T13:45:06.118Z,7.70
2018-05-12T13:47:33.735Z,11.98
2018-05-12T13:50:01.327Z,7.30
2018-05-12T13:52:28.903Z,7.07
2018-05-12T13:54:56.476Z,7.78
2018-05-12T13:57:24.271Z,9.52
2018-05-12T13:59:51.938Z,7.70
2018-05-12T14:02:20.063Z,7.75
2018-05-12T14:04:47.645Z,7.03
2018-05-12T14:07:15.294Z,7.22
2018-05-12T14:09:42.876Z,9.73
2018-05-12T14:12:10.466Z,8.02
2018-05-12T14:14:38.035Z,7.93
2018-05-12T14:17:05.621Z,7.90
2018-05-12T14:19:33.216Z,7.70
2018-05-12T14:22:00.814Z,7.70
2018-05-12T14:24:28.645Z,7.43
2018-05-12T14:26:56.227Z,8.02
2018-05-12T14:29:23.879Z,7.95
2018-05-12T14:31:51.475Z,9.48
2018-05-12T14:34:19.075Z,8.18
2018-05-12T14:36:46.677Z,10.23
2018-05-12T14:39:14.286Z,9.52
2018-05-12T14:41:41.887Z,7.87
2018-05-12T14:44:09.460Z,8.70
2018-05-12T14:46:37.093Z,8.48
2018-05-12T14:49:04.704Z,10.65
2018-05-12T14:51:32.283Z,9.57
2018-05-12T14:54:00.010Z,9.20
2018-05-12T14:56:27.623Z,9.27
2018-05-12T14:58:55.223Z,10.63
2018-05-12T15:01:22.856Z,8.77
2018-05-12T15:03:50.458Z,9.80
2018-05-12T15:06:18.036Z,9.80
2018-05-12T15:08:45.616Z,9.80
2018-05-12T15:11:13.996Z,9.70
2018-05-12T15:13:42.348Z,9.90
2018-05-12T15:16:09.945Z,9.18
2018-05-12T15:18:37.541Z,12.15
2018-05-12T15:21:05.135Z,14.87
2018-05-12T15:23:32.758Z,10.85
2018-05-12T15:26:00.352Z,9.77
2018-05-12T15:28:28.006Z,9.80
2018-05-12T15:30:55.577Z,10.68
2018-05-12T15:33:23.244Z,8.65
2018-05-12T15:35:51.634Z,9.73
2018-05-12T15:38:19.277Z,12.85
2018-05-12T15:40:46.870Z,12.82
2018-05-12T15:43:15.236Z,10.30
2018-05-12T15:45:42.830Z,10.00
2018-05-12T15:48:10.446Z,11.25
2018-05-12T15:50:38.244Z,10.90
2018-05-12T15:53:06.603Z,10.20
2018-05-12T15:55:34.215Z,12.77
2018-05-12T15:58:01.823Z,11.12
2018-05-12T16:00:29.889Z,11.15
2018-05-12T16:02:57.529Z,13.23
2018-05-12T16:05:25.153Z,11.80
2018-05-12T16:07:53.505Z,11.60
2018-05-12T16:10:21.099Z,9.80
2018-05-12T16:12:48.702Z,12.35
2018-05-12T16:15:16.309Z,13.48
2018-05-12T16:17:43.919Z,12.80
2018-05-12T16:20:11.513Z,12.02
2018-05-12T16:22:39.105Z,13.05
2018-05-12T16:25:06.701Z,12.30
2018-05-12T16:27:34.293Z,11.82
2018-05-12T16:30:01.896Z,11.25
2018-05-12T16:32:30.107Z,13.27
2018-05-12T16:34:57.696Z,13.23
2018-05-12T16:37:25.461Z,13.85
2018-05-12T16:39:53.045Z,12.43
2018-05-12T16:42:20.622Z,11.45
2018-05-12T16:44:48.218Z,12.37
2018-05-12T16:47:15.823Z,12.48
2018-05-12T16:49:43.428Z,14.05
2018-05-12T16:52:11.038Z,12.10
2018-05-12T16:54:38.666Z,12.45
2018-05-12T16:57:06.347Z,12.52
2018-05-12T16:59:33.921Z,12.37
2018-05-12T17:02:01.523Z,14.63
2018-05-12T17:04:30.182Z,14.18
2018-05-12T17:06:57.809Z,13.18
2018-05-12T17:09:25.402Z,14.23
2018-05-12T17:11:52.999Z,15.40
2018-05-12T17:14:20.626Z,16.75
2018-05-12T17:16:48.229Z,14.20
2018-05-12T17:19:15.848Z,18.75
2018-05-12T17:21:43.422Z,16.55
2018-05-12T17:24:11.772Z,12.75
2018-05-12T17:26:39.372Z,15.63
2018-05-12T17:29:07.106Z,13.62
2018-05-12T17:31:34.709Z,15.93
2018-05-12T17:34:02.327Z,14.77
2018-05-12T17:36:30.243Z,13.77
2018-05-12T17:38:57.887Z,17.55
2018-05-12T17:41:25.508Z,14.68
2018-05-12T17:43:53.108Z,15.18
2018-05-12T17:46:20.815Z,16.15
2018-05-12T17:48:48.409Z,14.38
2018-05-12T17:51:16.010Z,17.92
2018-05-12T17:53:43.615Z,14.73
2018-05-12T17:56:11.202Z,13.60
2018-05-12T17:58:39.577Z,13.60
2018-05-12T18:01:07.185Z,16.90
2018-05-12T18:03:34.797Z,12.95
2018-05-12T18:06:02.417Z,14.48
2018-05-12T18:08:31.034Z,14.15
2018-05-12T18:10:58.629Z,13.60
2018-05-12T18:13:26.227Z,16.45
2018-05-12T18:15:53.837Z,15.65
2018-05-12T18:18:21.425Z,15.93
2018-05-12T18:20:49.017Z,15.35
2018-05-12T18:23:16.628Z,15.13
2018-05-12T18:25:44.262Z,16.15
2018-05-12T18:28:11.840Z,17.02
2018-05-12T18:30:39.461Z,15.73
2018-05-12T18:33:07.081Z,18.30
2018-05-12T18:35:36.220Z,16.55
2018-05-12T18:38:03.834Z,16.90
2018-05-12T18:40:32.236Z,17.02
2018-05-12T18:42:59.962Z,16.75
2018-05-12T18:45:27.539Z,17.55
2018-05-12T18:47:55.128Z,18.87
2018-05-12T18:50:22.751Z,17.10
2018-05-12T18:52:50.400Z,18.65
2018-05-12T18:55:17.990Z,18.23
2018-05-12T18:57:46.447Z,19.62
2018-05-12T19:00:14.055Z,19.33
2018-05-12T19:02:41.639Z,21.48
2018-05-12T19:05:09.266Z,18.70
2018-05-12T19:07:37.003Z,19.50
2018-05-12T19:10:05.371Z,21.70
2018-05-12T19:12:32.965Z,21.00
2018-05-12T19:15:00.581Z,20.67
2018-05-12T19:17:28.191Z,23.67
2018-05-12T19:19:56.562Z,22.83
2018-05-12T19:22:24.145Z,22.43
2018-05-12T19:24:52.313Z,20.70
2018-05-12T19:27:20.695Z,23.03
2018-05-12T19:29:48.306Z,22.67
2018-05-12T19:32:15.914Z,22.00
2018-05-12T19:34:44.281Z,25.80
2018-05-12T19:37:14.804Z,24.27
2018-05-12T19:39:42.407Z,25.40
2018-05-12T19:42:10.031Z,25.27
2018-05-12T19:44:38.430Z,24.13
2018-05-12T19:47:06.831Z,24.50
2018-05-12T19:49:34.497Z,23.60
2018-05-12T19:52:02.061Z,25.13
2018-05-12T19:54:29.666Z,24.77
2018-05-12T19:56:57.351Z,23.43
2018-05-12T19:59:24.906Z,24.63
2018-05-12T20:01:52.477Z,21.87
2018-05-12T20:04:20.832Z,24.37
2018-05-12T20:06:48.603Z,24.03
2018-05-12T20:09:16.343Z,24.90
2018-05-12T20:11:43.940Z,23.70
2018-05-12T20:14:11.538Z,27.73
2018-05-12T20:16:39.124Z,23.83
2018-05-12T20:19:06.745Z,23.73
2018-05-12T20:21:34.333Z,24.40
2018-05-12T20:24:01.964Z,25.10
2018-05-12T20:26:29.566Z,24.00
2018-05-12T20:28:57.158Z,27.60
2018-05-12T20:31:24.826Z,24.70
2018-05-12T20:33:52.423Z,25.10
2018-05-12T20:36:20.046Z,25.10
2018-05-12T20:38:47.634Z,24.00
2018-05-12T20:41:15.246Z,24.47
2018-05-12T20:43:42.838Z,25.03
2018-05-12T20:46:10.487Z,23.50
2018-05-12T20:48:38.077Z,23.80
2018-05-12T20:51:05.683Z,23.27
2018-05-12T20:53:33.335Z,25.43
2018-05-12T20:56:00.943Z,22.43
2018-05-12T20:58:28.602Z,23.53
2018-05-12T21:00:56.202Z,25.10
2018-05-12T21:03:23.815Z,27.20
2018-05-12T21:05:51.398Z,22.20
2018-05-12T21:08:19.006Z,22.87
2018-05-12T21:10:47.409Z,23.07
2018-05-12T21:13:15.022Z,24.10
2018-05-12T21:15:42.616Z,24.27
2018-05-12T21:18:10.239Z,23.60
2018-05-12T21:20:37.842Z,21.87
2018-05-12T21:23:05.441Z,24.07
2018-05-12T21:25:33.358Z,24.17
2018-05-12T21:28:01.158Z,23.70
2018-05-12T21:30:28.764Z,23.23
2018-05-12T21:32:56.348Z,22.40
2018-05-12T21:35:23.948Z,22.53
2018-05-12T21:37:51.542Z,22.87
2018-05-12T21:40:19.717Z,21.97
2018-05-12T21:42:47.333Z,22.93
2018-05-12T21:45:14.950Z,21.67
2018-05-12T21:47:42.693Z,23.13
2018-05-12T21:50:11.060Z,23.33
2018-05-12T21:52:38.652Z,23.80
2018-05-12T21:55:06.250Z,21.53
2018-05-12T21:57:34.175Z,21.97
2018-05-12T22:00:01.782Z,20.93
2018-05-12T22:02:29.388Z,23.30
2018-05-12T22:04:57.746Z,22.93
2018-05-12T22:07:25.362Z,22.07
2018-05-12T22:09:53.008Z,23.23
2018-05-12T22:12:20.592Z,20.67
2018-05-12T22:14:48.204Z,22.27
2018-05-12T22:17:15.787Z,21.87
2018-05-12T22:19:43.428Z,21.87
2018-05-12T22:22:11.063Z,23.00
2018-05-12T22:24:38.688Z,21.00
2018-05-12T22:27:06.326Z,21.40
2018-05-12T22:29:34.734Z,21.37
2018-05-12T22:32:03.149Z,21.43
2018-05-12T22:34:30.767Z,22.00
2018-05-12T22:36:58.367Z,20.63
2018-05-12T22:39:25.969Z,22.03
2018-05-12T22:41:53.565Z,19.77
2018-05-12T22:44:21.288Z,21.27
2018-05-12T22:46:48.894Z,20.33
2018-05-12T22:49:16.495Z,21.77
2018-05-12T22:51:44.090Z,20.73
2018-05-12T22:54:11.681Z,21.43
2018-05-12T22:56:39.279Z,21.87
2018-05-12T22:59:06.863Z,20.97
2018-05-12T23:01:34.650Z,20.80
2018-05-12T23:04:02.304Z,21.50
2018-05-12T23:06:29.821Z,22.37
2018-05-12T23:08:57.596Z,21.00
2018-05-12T23:11:25.232Z,23.37
2018-05-12T23:13:52.836Z,22.73
2018-05-12T23:16:20.412Z,23.37
2018-05-12T23:18:48.784Z,23.97
2018-05-12T23:21:17.130Z,22.63
2018-05-12T23:23:45.268Z,22.43
2018-05-12T23:26:12.874Z,25.30
2018-05-12T23:28:40.467Z,24.03
2018-05-12T23:31:08.849Z,24.73
2018-05-12T23:33:37.221Z,25.10
2018-05-12T23:36:05.687Z,23.53
2018-05-12T23:38:33.289Z,24.60
2018-05-12T23:41:00.887Z,25.07
2018-05-12T23:43:28.516Z,23.13
2018-05-12T23:45:56.181Z,25.07
2018-05-12T23:48:23.799Z,24.57
2018-05-12T23:50:51.402Z,22.83
2018-05-12T23:53:19.403Z,21.23
2018-05-12T23:55:47.035Z,21.50
2018-05-12T23:58:14.628Z,22.47
